valordeweb.com alexa rank chart, valordeweb.com alexa rank daily changes

valordeweb.com alexa rank chart, valordeweb.com alexa rank daily changes

valordeweb.com
Actual rank:
181 513

RANK HISTORY

Date Rank Diff
2017/03/28 181 513 +1 453
2017/03/27 180 060 -5 012
2017/03/26 185 072 -1 598
2017/03/25 186 670 -2 029
2017/03/24 188 699 +326
2017/03/23 188 373 -5 051
2017/03/22 193 424 -4 771
2017/03/21 198 195 +427
2017/03/20 197 768 +4 277
2017/03/19 193 491 -107
2017/03/18 193 598 +1 008
2017/03/17 192 590 +2 562
2017/03/16 190 028 +1 177
2017/03/15 188 851 +880
2017/03/14 187 971 +2 967
2017/03/13 185 004 +743
2017/03/12 184 261 -1 846
2017/03/11 186 107 -782
2017/03/10 186 889 +800
2017/03/09 186 089 +1 355
2017/03/08 184 734 +314
2017/03/07 184 420 +3 429
2017/03/06 180 991 -2 202
2017/03/01 183 193 +7 077
2017/02/28 176 116 +1 875
2017/02/27 174 241 +2 904
2017/02/26 171 337 +221
2017/02/25 171 116 -2 064
2017/02/24 173 180 -1 346
2017/02/23 174 526 -3 291
2017/02/22 177 817 +1 044
2017/02/21 176 773 -1 620
2017/02/20 178 393 -7 812
2017/02/19 186 205 +3 484
2017/02/18 182 721 +2 043
2017/02/17 180 678 +513
2017/02/16 180 165 +6 105
2017/02/15 174 060 +1 252
2017/02/14 172 808 -514
2017/02/13 173 322 -2 441
2017/02/12 175 763 +1 043
2017/02/11 174 720 +868
2017/02/10 173 852 -592
2017/02/09 174 444 -3 868
2017/02/08 178 312 +126
2017/02/07 178 186 -1 888
2017/02/06 180 074 -71
2017/02/05 180 145 -4 138
2017/02/04 184 283 +1 652
2017/02/03 182 631 +633
2017/02/02 181 998 -1 010
2017/02/01 183 008 -2 321
2017/01/31 185 329 -3 610
2017/01/30 188 939 -2 753
2017/01/29 191 692 -2 968
2017/01/28 194 660 -3 157
2017/01/27 197 817

WIDGET FOR YOUR SITE

DOMAINS WITH THE NEAREST RANK

Domain Rank
246ys.com 181 508
fleishmanhillard.com 181 509
napr.gov.ge 181 510
ebarafoods.com 181 511
starmadedock.net 181 512
valordeweb.com 181 513
az-portal.pw 181 514
poshtiban.online 181 515
hicars.ir 181 516
zipin.ir 181 517
nispa.de 181 518

DOMAINS WITH THE NEAREST RANK BY TLD .com

Domain Rank
deeperblue.com 181 506
51ipa.com 181 507
246ys.com 181 508
fleishmanhillard.com 181 509
ebarafoods.com 181 511
valordeweb.com 181 513
s0123.com 181 519
heapsmag.com 181 520
ithacavoice.com 181 524
oga-ria.com 181 525
freshjoomlatemplates.com 181 526